Time;durP1;ratioP1;P1;durP2;ratioP2;P2;SDS_P1;SDS_P2;PMS_P1;PMS_P2;Temp;Humidity;BMP_temperature;BMP_pressure;BME280_temperature;BME280_humidity;BME280_pressure;Samples;Min_cycle;Max_cycle;Signal;HPM_P1;HPM_P2
2022/11/03 00:00:54;;;;;;;14.75;6.47;;;;;;;9.10;90.08;101013.13;2971662;78;20984;-88
2022/11/03 00:04:55;;;;;;;6.87;4.17;;;;;;;9.05;90.21;101009.92;2986643;77;21519;-88
2022/11/03 00:09:02;;;;;;;9.95;5.67;;;;;;;8.98;89.94;101008.97;2945668;77;21007;-89
2022/11/03 00:13:03;;;;;;;9.95;5.97;;;;;;;8.97;90.39;101006.43;2970758;77;21095;-88
2022/11/03 00:17:04;;;;;;;13.28;5.33;;;;;;;8.95;90.92;101009.16;2959827;77;21539;-87
2022/11/03 00:21:09;;;;;;;8.53;5.08;;;;;;;8.95;91.13;101007.84;3010357;76;20971;-88
2022/11/03 00:25:10;;;;;;;5.50;4.80;;;;;;;8.96;91.22;101008.22;2975829;76;21010;-89
2022/11/03 00:29:13;;;;;;;9.85;5.45;;;;;;;8.96;91.44;101004.73;2955414;77;21558;-87
2022/11/03 00:33:15;;;;;;;10.15;5.30;;;;;;;8.97;91.20;100995.81;2927904;77;21054;-89
2022/11/03 00:37:16;;;;;;;7.58;4.90;;;;;;;8.98;91.09;100996.19;2969336;77;21016;-88
2022/11/03 00:41:21;;;;;;;8.23;4.90;;;;;;;8.95;90.92;101001.20;2975705;77;20958;-84
2022/11/03 00:45:23;;;;;;;6.25;4.53;;;;;;;8.95;91.25;100998.55;2945741;77;21008;-87
2022/11/03 00:49:25;;;;;;;10.82;6.25;;;;;;;8.92;90.87;100996.09;2954366;76;21004;-89
2022/11/03 00:53:27;;;;;;;8.65;5.60;;;;;;;8.92;91.07;100988.14;2919814;78;21026;-88
2022/11/03 00:57:29;;;;;;;8.18;4.87;;;;;;;8.91;90.96;100990.42;2981832;77;21000;-88
2022/11/03 01:01:39;;;;;;;9.00;4.90;;;;;;;8.88;90.80;100989.29;2948088;77;20963;-88
2022/11/03 01:10:02;;;;;;;5.95;3.47;;;;;;;8.82;90.45;100990.98;2972228;77;21008;-88
2022/11/03 01:14:04;;;;;;;6.80;4.75;;;;;;;8.80;90.14;100983.60;2973481;76;21553;-89
2022/11/03 01:18:05;;;;;;;5.97;3.42;;;;;;;8.74;90.01;100986.66;2962937;78;21011;-89
2022/11/03 01:22:07;;;;;;;5.85;3.50;;;;;;;8.70;90.18;100986.85;2995840;75;21522;-88
2022/11/03 01:26:11;;;;;;;11.33;4.05;;;;;;;8.64;90.06;100987.70;2975787;77;21035;-89
2022/11/03 01:30:12;;;;;;;5.20;4.42;;;;;;;8.60;89.95;100988.85;2978471;77;20986;-88
2022/11/03 01:34:16;;;;;;;6.72;3.98;;;;;;;8.57;90.19;100988.09;2954014;77;21023;-88
2022/11/03 01:38:17;;;;;;;8.80;4.50;;;;;;;8.57;90.12;100995.19;2974349;77;21017;-88
2022/11/03 01:42:18;;;;;;;8.43;3.87;;;;;;;8.52;89.86;100980.88;2958297;77;21054;-86
2022/11/03 01:46:27;;;;;;;11.25;4.00;;;;;;;8.48;90.20;100983.81;2902781;78;21050;-88
2022/11/03 01:50:29;;;;;;;6.85;3.83;;;;;;;8.43;90.18;100970.34;2913257;78;21039;-88
2022/11/03 01:54:32;;;;;;;11.22;3.75;;;;;;;8.40;90.58;100966.55;2887861;79;20975;-88
2022/11/03 01:58:37;;;;;;;5.08;3.67;;;;;;;8.37;90.22;100968.08;2847968;80;21031;-89
2022/11/03 02:02:39;;;;;;;6.30;4.08;;;;;;;8.33;92.04;100958.61;2852619;80;21578;-89
2022/11/03 02:06:41;;;;;;;3.02;2.42;;;;;;;8.26;93.21;100953.33;2836101;80;21021;-89
2022/11/03 02:10:47;;;;;;;5.33;3.20;;;;;;;8.23;93.76;100946.40;2903770;79;21001;-90
2022/11/03 02:14:57;;;;;;;6.95;3.67;;;;;;;8.18;93.25;100944.97;2804715;80;21541;-88
2022/11/03 02:19:01;;;;;;;10.58;3.27;;;;;;;7.88;93.46;100937.95;2907393;78;21060;-89
2022/11/03 02:23:40;;;;;;;4.40;2.62;;;;;;;7.58;95.17;100933.91;2910739;79;20988;-88
2022/11/03 02:27:42;;;;;;;4.20;3.00;;;;;;;7.46;96.05;100928.00;2954856;77;21074;-88
2022/11/03 02:31:48;;;;;;;6.85;3.30;;;;;;;7.46;97.49;100921.87;2978348;77;20997;-88
2022/11/03 02:36:13;;;;;;;4.05;2.52;;;;;;;7.42;97.94;100925.16;2920698;77;20999;-88
2022/11/03 02:40:26;;;;;;;5.12;3.77;;;;;;;7.46;99.83;100917.41;2983793;77;21490;-88
2022/11/03 02:44:28;;;;;;;9.10;3.67;;;;;;;7.56;99.79;100918.59;2918273;77;21548;-88
2022/11/03 02:48:30;;;;;;;15.58;3.95;;;;;;;7.62;99.51;100912.54;2942877;77;21039;-90
2022/11/03 02:52:39;;;;;;;5.30;3.42;;;;;;;7.57;98.85;100905.73;2947792;78;20999;-90
2022/11/03 02:56:46;;;;;;;5.67;3.90;;;;;;;7.55;98.36;100900.13;2979823;76;21015;-89
2022/11/03 03:01:13;;;;;;;6.87;4.20;;;;;;;7.41;98.27;100903.60;2976821;75;21592;-88
2022/11/03 03:05:14;;;;;;;4.80;3.22;;;;;;;7.15;100.00;100900.69;2937992;78;21770;-89
2022/11/03 03:09:20;;;;;;;6.47;4.03;;;;;;;6.99;100.00;100888.34;2958111;77;20991;-89
2022/11/03 03:13:23;;;;;;;3.40;2.65;;;;;;;6.85;100.00;100895.73;2967440;78;21102;-88
2022/11/03 03:17:33;;;;;;;8.50;3.35;;;;;;;6.80;100.00;100896.48;2922680;78;20983;-86
2022/11/03 03:21:40;;;;;;;8.90;2.80;;;;;;;6.75;100.00;100900.31;2968471;77;21101;-89
2022/11/03 03:25:49;;;;;;;4.12;3.47;;;;;;;6.66;100.00;100888.45;2969168;77;21125;-88
2022/11/03 03:30:04;;;;;;;9.88;3.92;;;;;;;6.62;100.00;100890.89;2976328;77;20960;-89
2022/11/03 03:34:07;;;;;;;2.80;2.60;;;;;;;6.54;100.00;100888.67;2962937;77;21011;-88
2022/11/03 03:38:16;;;;;;;4.85;3.60;;;;;;;6.53;100.00;100886.97;2958661;78;21573;-87
2022/11/03 03:42:21;;;;;;;4.28;2.83;;;;;;;6.60;100.00;100886.16;2991312;75;21551;-89
2022/11/03 03:46:28;;;;;;;4.25;3.37;;;;;;;6.73;100.00;100885.01;2977414;76;20955;-89
2022/11/03 03:50:34;;;;;;;7.08;4.30;;;;;;;6.66;100.00;100883.17;3001216;76;21515;-90
2022/11/03 03:54:36;;;;;;;9.23;4.22;;;;;;;6.55;100.00;100873.20;2971447;77;21103;-90
2022/11/03 03:58:37;;;;;;;8.30;3.55;;;;;;;6.44;100.00;100864.55;2939421;77;21645;-89
2022/11/03 04:02:39;;;;;;;5.83;3.87;;;;;;;6.32;100.00;100871.81;2954424;78;21126;-91
2022/11/03 04:06:40;;;;;;;7.20;2.83;;;;;;;6.20;100.00;100864.09;2967235;77;21007;-90
2022/11/03 04:22:15;;;;;;;5.12;3.37;;;;;;;6.13;100.00;100867.07;2973382;76;21640;-90
2022/11/03 04:23:31;;;;;;;16.75;5.83;;;;;;;5.96;100.00;100861.80;2961107;76;21000;-92
2022/11/03 04:27:36;;;;;;;5.00;4.50;;;;;;;5.83;100.00;100858.48;2968521;77;20972;-92
2022/11/03 04:31:37;;;;;;;5.78;4.85;;;;;;;5.78;100.00;100863.62;2970469;77;21032;-90
2022/11/03 04:35:39;;;;;;;8.35;3.35;;;;;;;5.77;100.00;100853.98;2968720;76;21030;-91
2022/11/03 04:39:40;;;;;;;7.72;4.35;;;;;;;5.68;100.00;100849.59;2984606;75;21022;-90
2022/11/03 04:43:44;;;;;;;5.42;3.42;;;;;;;5.66;100.00;100850.59;2992080;77;21510;-92
2022/11/03 04:47:46;;;;;;;5.28;3.42;;;;;;;5.62;100.00;100841.14;2961138;77;21643;-89
2022/11/03 04:51:48;;;;;;;7.72;4.37;;;;;;;5.71;100.00;100832.75;2991318;77;21568;-90
2022/11/03 04:55:52;;;;;;;11.05;3.62;;;;;;;5.70;100.00;100829.24;2977168;77;21050;-90
2022/11/03 04:59:54;;;;;;;5.62;3.42;;;;;;;5.61;100.00;100830.20;2961414;76;20980;-90
2022/11/03 05:03:55;;;;;;;4.65;3.72;;;;;;;5.56;100.00;100826.02;2983342;77;21067;-89
2022/11/03 05:07:58;;;;;;;4.55;4.12;;;;;;;5.50;100.00;100818.88;2968399;78;21051;-92
2022/11/03 05:12:00;;;;;;;7.05;4.83;;;;;;;5.47;100.00;100821.69;2967646;75;20991;-89
2022/11/03 05:16:06;;;;;;;5.45;4.47;;;;;;;5.49;100.00;100807.45;2943949;79;21008;-92
2022/11/03 05:20:11;;;;;;;;;;;;;;;5.48;100.00;100801.80;2962188;77;21006;-92
2022/11/03 05:24:13;;;;;;;6.35;4.65;;;;;;;5.47;100.00;100801.41;2963007;77;20086;-93
2022/11/03 05:28:26;;;;;;;15.15;5.20;;;;;;;5.47;100.00;100792.17;2924656;78;21046;-94
2022/11/03 05:32:31;;;;;;;12.63;6.90;;;;;;;5.45;100.00;100794.05;2879403;80;20988;-93
2022/11/03 05:36:32;;;;;;;9.58;5.95;;;;;;;5.40;100.00;100786.39;2874362;79;21048;-91
2022/11/03 05:40:34;;;;;;;9.38;6.50;;;;;;;5.46;100.00;100789.64;2920937;79;21520;-92
2022/11/03 05:44:38;;;;;;;15.15;10.48;;;;;;;5.61;100.00;100792.80;2914363;78;21055;-90
2022/11/03 05:48:43;;;;;;;14.80;6.47;;;;;;;5.63;100.00;100790.05;2929621;79;20961;-91
2022/11/03 05:52:46;;;;;;;9.23;6.28;;;;;;;5.63;100.00;100787.41;2925272;79;21094;-90
2022/11/03 05:56:48;;;;;;;10.23;5.47;;;;;;;5.63;100.00;100788.73;2957671;78;20987;-91
2022/11/03 06:00:49;;;;;;;10.05;6.08;;;;;;;5.76;100.00;100786.28;2882027;80;20981;-90
2022/11/03 06:04:50;;;;;;;21.30;6.47;;;;;;;5.75;100.00;100791.19;2983703;76;21003;-92
2022/11/03 06:08:52;;;;;;;9.58;7.20;;;;;;;5.69;100.00;100789.72;2997324;77;21015;-92
2022/11/03 06:13:02;;;;;;;11.43;7.00;;;;;;;5.84;100.00;100794.18;2970047;77;21526;-91
2022/11/03 06:17:15;;;;;;;7.95;6.08;;;;;;;5.94;100.00;100783.97;2985050;78;21094;-90
2022/11/03 06:21:23;;;;;;;11.48;7.75;;;;;;;6.10;100.00;100789.33;2978921;76;21058;-91
2022/11/03 06:25:31;;;;;;;14.40;8.60;;;;;;;6.08;100.00;100793.80;2959989;77;21003;-93
2022/11/03 06:29:33;;;;;;;13.72;6.83;;;;;;;6.10;100.00;100790.64;3014848;76;21050;-91
2022/11/03 06:33:35;;;;;;;6.92;5.37;;;;;;;6.25;100.00;100788.93;2997028;77;21006;-92
2022/11/03 06:37:36;;;;;;;14.90;6.05;;;;;;;6.45;100.00;100779.48;2979423;76;21572;-92
2022/11/03 06:41:38;;;;;;;13.70;6.95;;;;;;;6.59;100.00;100776.08;2974528;77;21019;-90
2022/11/03 06:45:50;;;;;;;7.42;6.08;;;;;;;6.89;100.00;100773.45;2934293;77;21032;-93
2022/11/03 06:49:55;;;;;;;8.95;5.58;;;;;;;7.17;100.00;100781.06;2978219;77;20995;-90
2022/11/03 06:53:59;;;;;;;10.00;5.10;;;;;;;7.40;100.00;100781.47;2909365;77;20968;-91
2022/11/03 06:58:35;;;;;;;10.32;4.90;;;;;;;7.57;100.00;100786.59;2955736;77;21024;-92
2022/11/03 07:02:51;;;;;;;13.00;5.67;;;;;;;7.77;100.00;100800.88;2848407;80;21062;-92
2022/11/03 07:06:52;;;;;;;12.33;7.00;;;;;;;7.95;100.00;100805.00;2875506;80;21086;-92
2022/11/03 07:11:07;;;;;;;11.85;4.75;;;;;;;8.05;100.00;100800.47;2869073;80;21020;-92
2022/11/03 07:15:34;;;;;;;4.80;4.10;;;;;;;8.15;100.00;100801.58;2892972;80;21075;-89
2022/11/03 07:19:39;;;;;;;9.63;5.90;;;;;;;8.17;100.00;100790.43;2902378;79;21035;-92
2022/11/03 07:23:41;;;;;;;8.03;5.62;;;;;;;8.37;100.00;100795.77;2847774;80;21649;-93
2022/11/03 07:27:43;;;;;;;8.85;5.72;;;;;;;8.55;100.00;100787.14;2850840;80;21034;-92
2022/11/03 07:31:44;;;;;;;9.93;4.90;;;;;;;8.76;100.00;100776.06;2869049;80;21518;-92
2022/11/03 07:35:47;;;;;;;6.80;5.35;;;;;;;8.97;100.00;100763.14;2915194;79;21051;-90
2022/11/03 07:39:50;;;;;;;9.30;5.47;;;;;;;9.07;99.71;100754.58;2976647;77;21058;-93
2022/11/03 07:43:57;;;;;;;9.35;5.37;;;;;;;9.20;99.78;100750.11;2959664;77;20995;-90
2022/11/03 07:48:03;;;;;;;11.78;5.40;;;;;;;9.43;100.00;100742.34;2971714;77;21018;-91
2022/11/03 07:52:08;;;;;;;9.63;5.40;;;;;;;9.68;100.00;100741.47;2986276;77;21023;-92
2022/11/03 07:56:25;;;;;;;8.90;5.17;;;;;;;9.91;99.13;100728.34;2948526;76;21023;-91
2022/11/03 08:00:26;;;;;;;11.55;5.78;;;;;;;10.15;98.58;100717.75;2996911;77;20969;-92
2022/11/03 08:04:30;;;;;;;7.17;5.25;;;;;;;10.41;99.22;100726.96;2963856;77;21010;-92
2022/11/03 08:08:32;;;;;;;6.12;4.95;;;;;;;10.58;97.63;100719.53;2949253;77;21044;-92
2022/11/03 08:12:33;;;;;;;11.25;5.50;;;;;;;10.62;96.98;100708.20;2845935;80;21543;-91
2022/11/03 08:16:35;;;;;;;11.18;4.37;;;;;;;10.73;98.16;100701.59;2900329;80;21154;-93
2022/11/03 08:20:36;;;;;;;7.42;4.83;;;;;;;10.85;98.25;100688.66;2875418;80;21106;-93
2022/11/03 08:24:37;;;;;;;10.90;4.90;;;;;;;10.95;96.03;100686.64;2985956;77;21141;-92
2022/11/03 08:28:38;;;;;;;9.70;5.05;;;;;;;11.20;96.53;100673.60;2997511;76;21094;-91
2022/11/03 08:32:40;;;;;;;12.33;5.05;;;;;;;11.42;96.22;100666.08;2961175;77;21171;-91
2022/11/03 08:36:41;;;;;;;8.50;4.15;;;;;;;11.62;94.52;100660.14;2949679;77;21157;-92
2022/11/03 08:40:42;;;;;;;8.85;5.12;;;;;;;11.85;92.29;100646.26;3001557;76;21086;-93
2022/11/03 08:44:43;;;;;;;5.70;4.33;;;;;;;12.04;90.28;100642.98;2965421;77;21042;-89
2022/11/03 08:48:45;;;;;;;13.90;4.20;;;;;;;12.31;90.70;100643.48;2932151;77;21530;-91
2022/11/03 08:52:46;;;;;;;6.45;3.00;;;;;;;12.53;89.27;100643.83;2973873;76;21031;-92
2022/11/03 08:56:48;;;;;;;6.67;2.67;;;;;;;12.65;88.15;100631.27;2989444;76;21828;-92
2022/11/03 09:00:49;;;;;;;4.83;2.58;;;;;;;12.66;85.39;100623.14;2961593;77;21032;-90
2022/11/03 09:04:50;;;;;;;8.90;3.92;;;;;;;12.74;85.72;100614.95;2887815;79;21425;-90
2022/11/03 09:08:52;;;;;;;23.70;17.60;;;;;;;12.91;86.11;100614.34;2843762;81;21014;-90
2022/11/03 09:12:54;;;;;;;21.68;10.08;;;;;;;13.05;86.31;100609.64;2860096;81;21057;-91
2022/11/03 09:16:55;;;;;;;7.35;5.37;;;;;;;13.05;85.49;100605.12;2878942;80;21027;-91
2022/11/03 09:20:56;;;;;;;7.50;4.30;;;;;;;12.98;86.29;100600.84;2885810;80;21004;-91
2022/11/03 09:24:58;;;;;;;4.15;3.12;;;;;;;13.06;85.09;100603.32;2946219;76;21646;-91
2022/11/03 09:28:59;;;;;;;5.90;3.08;;;;;;;13.03;85.15;100588.40;2965064;76;21124;-91
2022/11/03 09:33:00;;;;;;;7.70;3.17;;;;;;;13.21;84.67;100591.77;2978049;77;20979;-91
2022/11/03 09:37:02;;;;;;;6.62;4.10;;;;;;;13.32;84.97;100583.66;2972751;78;21007;-89
2022/11/03 09:41:05;;;;;;;6.12;3.67;;;;;;;13.25;86.26;100574.48;2968529;75;21550;-91
2022/11/03 09:54:28;;;;;;;7.85;3.08;;;;;;;13.54;83.36;100557.20;3017073;76;20933;-90
2022/11/03 10:11:41;;;;;;;17.60;3.42;;;;;;;13.91;79.48;100528.96;2906025;79;21081;-88
2022/11/03 10:15:43;;;;;;;4.83;3.15;;;;;;;13.86;80.17;100520.53;2935977;78;21459;-90
2022/11/03 10:19:47;;;;;;;7.30;3.22;;;;;;;13.90;82.12;100518.39;2926325;78;21014;-91
2022/11/03 10:23:49;;;;;;;6.58;3.30;;;;;;;13.87;82.73;100514.67;2937166;78;20995;-89
2022/11/03 10:27:50;;;;;;;5.45;3.60;;;;;;;14.12;80.78;100507.38;2897047;77;20935;-91
2022/11/03 10:31:55;;;;;;;11.15;3.15;;;;;;;14.16;80.20;100512.47;2936939;80;21010;-91
2022/11/03 10:36:00;;;;;;;7.17;2.85;;;;;;;14.32;79.72;100499.81;2909967;79;20987;-90
2022/11/03 10:40:01;;;;;;;3.77;2.67;;;;;;;14.39;77.75;100489.73;2876992;81;21025;-91
2022/11/03 10:44:18;;;;;;;9.63;3.02;;;;;;;14.39;75.87;100487.05;2912491;79;21013;-90
2022/11/03 10:48:20;;;;;;;4.42;2.40;;;;;;;14.38;75.21;100480.02;2964793;78;21510;-91
2022/11/03 10:52:24;;;;;;;5.55;2.45;;;;;;;14.24;78.08;100472.45;2873143;80;21030;-90
2022/11/03 10:56:26;;;;;;;7.50;3.02;;;;;;;14.33;77.12;100472.90;2918892;78;20967;-92
2022/11/03 11:00:29;;;;;;;14.78;3.75;;;;;;;14.37;77.09;100468.11;2929784;78;20994;-88
2022/11/03 11:04:31;;;;;;;9.40;4.45;;;;;;;14.29;77.44;100451.44;2924248;79;21026;-90
2022/11/03 11:08:33;;;;;;;4.75;3.37;;;;;;;14.38;79.76;100449.72;2867423;80;21049;-90
2022/11/03 11:12:35;;;;;;;4.53;2.55;;;;;;;14.47;79.04;100438.16;2920838;78;21576;-90
2022/11/03 11:16:52;;;;;;;6.25;3.10;;;;;;;14.42;78.80;100435.05;2916941;77;21065;-91
2022/11/03 11:21:01;;;;;;;12.63;3.83;;;;;;;14.41;78.36;100419.50;2901176;78;21078;-91
2022/11/03 11:25:03;;;;;;;10.05;4.42;;;;;;;14.42;77.80;100402.45;2922434;79;21458;-91
2022/11/03 11:29:14;;;;;;;5.12;3.08;;;;;;;14.40;77.72;100397.75;2930292;78;21523;-91
2022/11/03 11:33:22;;;;;;;6.70;3.08;;;;;;;14.54;77.79;100389.72;2903081;79;21039;-90
2022/11/03 11:37:29;;;;;;;10.18;3.40;;;;;;;14.55;77.18;100381.20;2930213;77;21522;-90
2022/11/03 11:42:12;;;;;;;6.28;3.62;;;;;;;14.55;76.53;100379.87;2919715;78;21564;-91
2022/11/03 11:46:41;;;;;;;10.53;4.42;;;;;;;14.60;77.09;100372.22;2899912;78;21094;-91
2022/11/03 11:50:42;;;;;;;9.25;2.85;;;;;;;14.65;76.30;100361.07;2928715;78;20999;-92
2022/11/03 11:54:44;;;;;;;6.92;5.33;;;;;;;14.75;76.08;100357.02;2910025;79;21027;-90
2022/11/03 11:58:53;;;;;;;14.50;3.33;;;;;;;14.78;76.01;100356.72;2921774;79;21045;-90
2022/11/03 12:02:56;;;;;;;7.65;3.50;;;;;;;14.83;74.39;100345.05;2925547;79;21073;-90
2022/11/03 12:06:57;;;;;;;8.75;3.58;;;;;;;14.91;75.38;100347.78;2929652;78;21050;-90
2022/11/03 12:11:01;;;;;;;7.80;3.37;;;;;;;15.02;74.84;100333.84;2870879;80;21007;-89
2022/11/03 12:15:03;;;;;;;6.42;2.98;;;;;;;15.09;74.14;100336.23;2900163;80;21054;-89
2022/11/03 12:19:41;;;;;;;4.55;2.62;;;;;;;15.12;75.19;100326.05;2939767;78;21472;-90
2022/11/03 12:23:46;;;;;;;7.15;3.83;;;;;;;15.13;75.04;100318.84;2931608;78;21014;-91
2022/11/03 12:27:47;;;;;;;17.23;8.48;;;;;;;15.20;72.63;100311.89;2919385;78;20994;-90
2022/11/03 12:31:49;;;;;;;14.00;4.28;;;;;;;15.25;72.05;100309.58;2920753;79;20972;-91
2022/11/03 12:35:50;;;;;;;14.35;9.50;;;;;;;15.34;72.45;100300.27;2881842;79;21028;-89
2022/11/03 12:39:51;;;;;;;5.85;4.42;;;;;;;15.35;73.91;100297.94;2909898;78;21022;-91
2022/11/03 12:43:54;;;;;;;8.00;4.92;;;;;;;15.27;70.10;100286.66;2898512;80;20991;-89
2022/11/03 12:47:56;;;;;;;11.25;3.80;;;;;;;15.26;69.45;100278.28;2869627;80;21452;-90
2022/11/03 12:52:05;;;;;;;13.70;4.95;;;;;;;15.23;70.20;100272.72;2925562;78;21116;-90
2022/11/03 12:56:03;;;;;;;5.47;3.72;;;;;;;15.24;70.68;100266.88;2885028;78;21018;-90
2022/11/03 13:00:06;;;;;;;8.10;3.17;;;;;;;15.24;69.55;100265.53;2916829;78;22208;-90
2022/11/03 13:04:08;;;;;;;8.50;4.28;;;;;;;15.19;70.36;100251.75;2899644;80;21588;-89
2022/11/03 13:08:09;;;;;;;6.83;3.85;;;;;;;15.22;72.54;100241.56;2943464;79;21045;-90
2022/11/03 13:16:31;;;;;;;22.05;16.25;;;;;;;15.21;71.18;100230.99;2903952;80;20982;-91
2022/11/03 13:20:34;;;;;;;18.98;10.05;;;;;;;15.26;74.19;100217.47;2932399;78;21518;-90
2022/11/03 13:24:36;;;;;;;5.58;4.62;;;;;;;15.21;74.02;100212.23;2926840;78;20963;-90
2022/11/03 13:28:37;;;;;;;7.80;3.62;;;;;;;15.12;73.59;100202.83;2923822;78;21014;-91
2022/11/03 13:32:39;;;;;;;6.50;3.50;;;;;;;15.02;72.41;100201.25;2936669;78;21018;-90
2022/11/03 13:36:40;;;;;;;10.93;3.80;;;;;;;14.88;72.35;100190.61;2924727;78;21014;-87
2022/11/03 13:40:41;;;;;;;5.47;2.92;;;;;;;14.76;72.91;100184.67;2898132;79;21020;-91
2022/11/03 13:44:43;;;;;;;5.67;2.90;;;;;;;14.66;74.30;100178.86;2935875;78;21002;-90
2022/11/03 13:48:45;;;;;;;8.60;3.50;;;;;;;14.65;75.54;100173.16;2906702;79;21065;-85
2022/11/03 13:52:47;;;;;;;8.30;4.28;;;;;;;14.64;75.52;100158.10;2884672;80;20970;-85
2022/11/03 13:56:48;;;;;;;8.40;5.75;;;;;;;14.65;74.98;100149.07;2899797;80;21019;-85
2022/11/03 14:00:50;;;;;;;8.18;5.83;;;;;;;14.64;75.18;100148.73;2877671;81;21069;-85
2022/11/03 14:04:51;;;;;;;9.43;4.15;;;;;;;14.68;76.13;100143.91;2851513;80;21002;-85
2022/11/03 14:08:53;;;;;;;7.10;4.05;;;;;;;14.72;76.22;100143.97;2901332;78;20975;-85
2022/11/03 14:12:54;;;;;;;8.78;4.25;;;;;;;14.70;75.48;100144.08;2892061;80;21629;-85
2022/11/03 14:16:56;;;;;;;6.65;3.60;;;;;;;14.68;75.09;100150.61;2839327;80;21003;-86
2022/11/03 14:20:57;;;;;;;4.80;3.72;;;;;;;14.71;76.21;100148.47;2924875;79;21502;-85
2022/11/03 14:25:00;;;;;;;9.35;3.90;;;;;;;14.70;75.53;100149.44;2928232;79;20982;-87
2022/11/03 14:29:01;;;;;;;5.53;3.77;;;;;;;14.63;75.77;100138.16;2894716;80;21006;-86
2022/11/03 14:33:03;;;;;;;7.12;3.77;;;;;;;14.58;76.37;100134.64;2901048;78;20999;-86
2022/11/03 14:37:04;;;;;;;6.62;3.20;;;;;;;14.53;76.12;100128.89;2886813;79;20995;-86
2022/11/03 14:45:26;;;;;;;11.57;3.67;;;;;;;14.39;77.43;100127.13;2900667;79;21011;-87
2022/11/03 14:49:31;;;;;;;5.28;3.90;;;;;;;14.31;78.55;100121.70;2900629;78;21013;-88
2022/11/03 14:53:32;;;;;;;4.92;2.87;;;;;;;14.22;79.28;100122.64;2911153;79;20959;-88
2022/11/03 14:57:34;;;;;;;7.30;3.55;;;;;;;14.09;80.62;100113.16;2838350;78;20985;-87
2022/11/03 15:01:37;;;;;;;5.35;4.10;;;;;;;14.00;81.07;100108.22;2857583;78;21024;-85
2022/11/03 15:05:44;;;;;;;12.33;4.47;;;;;;;13.91;81.79;100097.13;2906236;79;21016;-91
2022/11/03 15:09:46;;;;;;;17.30;4.90;;;;;;;13.85;82.24;100093.70;2819083;81;21058;-90
2022/11/03 15:13:47;;;;;;;11.65;6.55;;;;;;;13.74;82.75;100089.92;2905187;80;20995;-94
2022/11/03 15:17:49;;;;;;;9.55;5.10;;;;;;;13.56;83.28;100078.23;2925262;80;21656;-92
2022/11/03 15:21:50;;;;;;;16.48;10.43;;;;;;;13.53;83.37;100075.02;2888427;80;20980;-91
2022/11/03 15:25:52;;;;;;;34.00;20.45;;;;;;;13.37;84.06;100074.31;2871009;80;21025;-90
2022/11/03 15:29:53;;;;;;;26.90;16.15;;;;;;;13.31;84.31;100065.53;2913387;78;20999;-93
2022/11/03 15:33:55;;;;;;;14.18;8.65;;;;;;;13.28;84.47;100062.17;2903992;78;21005;-90
2022/11/03 15:37:59;;;;;;;12.07;7.90;;;;;;;13.22;84.70;100052.09;2935826;78;21640;-93
2022/11/03 15:42:00;;;;;;;30.08;12.82;;;;;;;13.14;85.33;100047.50;2903401;79;21057;-90
2022/11/03 15:46:02;;;;;;;26.95;13.28;;;;;;;13.09;85.54;100050.26;2941930;78;21145;-92
2022/11/03 15:50:05;;;;;;;29.48;16.12;;;;;;;13.03;85.90;100030.83;2902269;79;21517;-90
2022/11/03 15:54:07;;;;;;;32.40;15.88;;;;;;;12.95;86.38;100029.72;2918412;78;20999;-91
2022/11/03 15:58:08;;;;;;;18.77;10.75;;;;;;;12.89;86.72;100034.33;2867157;80;21134;-91
2022/11/03 16:02:10;;;;;;;27.85;12.78;;;;;;;12.85;86.84;100026.27;2893441;80;21532;-91
2022/11/03 16:06:11;;;;;;;19.00;10.15;;;;;;;12.80;87.00;100004.53;2905182;80;20999;-92
2022/11/03 16:10:13;;;;;;;18.30;9.83;;;;;;;12.70;87.88;100017.41;2915306;79;20991;-91
2022/11/03 16:14:14;;;;;;;21.93;11.78;;;;;;;12.57;87.72;100017.73;2931447;78;21042;-92
2022/11/03 16:18:16;;;;;;;16.62;10.32;;;;;;;12.32;89.21;100012.53;2906021;78;21066;-93
2022/11/03 16:22:17;;;;;;;18.60;10.32;;;;;;;12.02;91.32;100002.42;2859407;80;20982;-92
2022/11/03 16:26:20;;;;;;;18.98;12.23;;;;;;;11.95;92.00;100000.78;2870906;80;21514;-92
2022/11/03 16:30:22;;;;;;;19.98;12.03;;;;;;;11.80;93.68;99999.05;2906973;79;20987;-92
2022/11/03 16:34:24;;;;;;;20.55;14.18;;;;;;;11.70;93.18;99992.86;2897599;78;21616;-92
2022/11/03 16:38:25;;;;;;;33.95;19.32;;;;;;;11.67;93.18;99982.49;2943946;78;21010;-90
2022/11/03 16:42:27;;;;;;;25.45;13.35;;;;;;;11.69;93.64;99977.39;2938782;78;21023;-92
2022/11/03 16:46:28;;;;;;;24.00;14.83;;;;;;;11.70;93.71;99961.75;2872017;80;21557;-91
2022/11/03 16:50:31;;;;;;;21.48;11.85;;;;;;;11.84;92.96;99939.63;2945924;78;21007;-90
2022/11/03 16:54:34;;;;;;;17.67;12.15;;;;;;;11.91;92.32;99947.41;2906754;78;21050;-91
2022/11/03 16:58:35;;;;;;;16.85;10.48;;;;;;;11.92;92.01;99921.59;2896983;79;21050;-91
2022/11/03 17:02:37;;;;;;;22.07;11.75;;;;;;;12.01;91.33;99920.77;2856391;78;21580;-89
2022/11/03 17:06:38;;;;;;;19.57;13.25;;;;;;;12.02;91.23;99910.45;2870350;78;20998;-91
2022/11/03 17:10:40;;;;;;;19.17;14.78;;;;;;;12.02;91.39;99904.27;2913439;78;29313;-87
2022/11/03 17:14:42;;;;;;;22.95;16.65;;;;;;;12.03;91.36;99903.28;2915622;78;21011;-94
2022/11/03 17:27:26;;;;;;;24.90;17.65;;;;;;;11.95;91.96;99879.98;2956339;78;21012;-90
2022/11/03 17:31:28;;;;;;;;;;;;;;;11.87;92.66;99880.70;2927208;78;21063;-96
2022/11/03 17:39:40;;;;;;;26.40;16.23;;;;;;;11.77;93.14;99868.73;2826866;80;21083;-60
2022/11/03 17:43:42;;;;;;;42.00;16.93;;;;;;;11.76;93.80;99868.90;2797312;81;20995;-60
2022/11/03 17:47:44;;;;;;;31.75;17.25;;;;;;;11.71;93.90;99861.33;2928932;79;20999;-59
2022/11/03 17:51:45;;;;;;;28.42;17.55;;;;;;;11.69;94.47;99855.30;2929339;79;21042;-59
2022/11/03 17:55:48;;;;;;;22.05;14.60;;;;;;;11.61;95.19;99855.20;2908128;80;21047;-59
2022/11/03 17:59:53;;;;;;;31.95;18.02;;;;;;;11.52;95.53;99844.91;2915564;79;21108;-58
2022/11/03 18:03:54;;;;;;;25.50;15.27;;;;;;;11.51;95.20;99837.39;2875749;80;20983;-58
2022/11/03 18:07:59;;;;;;;22.98;14.65;;;;;;;11.48;95.14;99817.70;2926635;79;20921;-59
2022/11/03 18:16:21;;;;;;;26.27;14.00;;;;;;;11.49;94.92;99813.20;2865950;80;21037;-57
2022/11/03 18:20:29;;;;;;;16.65;12.55;;;;;;;11.47;94.68;99807.19;2917864;79;21097;-61
2022/11/03 18:24:30;;;;;;;22.22;13.62;;;;;;;11.52;93.93;99798.30;2896475;79;20998;-57
2022/11/03 18:28:32;;;;;;;25.92;14.95;;;;;;;11.53;93.42;99791.47;2899674;79;21022;-58
2022/11/03 18:32:35;;;;;;;23.27;13.78;;;;;;;11.51;93.42;99789.45;2886513;80;21638;-57
2022/11/03 18:36:37;;;;;;;22.45;13.43;;;;;;;11.52;93.38;99785.80;2905564;79;21019;-58
2022/11/03 18:40:49;;;;;;;19.52;14.03;;;;;;;11.52;93.10;99775.66;2922383;79;21001;-57
2022/11/03 18:44:51;;;;;;;20.08;13.03;;;;;;;11.48;93.83;99768.43;2921559;79;21018;-59
2022/11/03 18:48:53;;;;;;;20.62;16.15;;;;;;;11.43;94.42;99757.37;2909258;79;20985;-59
2022/11/03 18:52:54;;;;;;;27.95;15.72;;;;;;;11.44;94.05;99745.74;2889261;80;21052;-57
2022/11/03 18:56:56;;;;;;;31.37;17.32;;;;;;;11.40;94.30;99738.52;2929615;78;21015;-59
2022/11/03 19:00:58;;;;;;;26.62;16.87;;;;;;;11.33;94.83;99730.78;2898699;79;21082;-60
2022/11/03 19:05:06;;;;;;;28.40;16.40;;;;;;;11.25;95.03;99722.17;2922903;78;21103;-58
2022/11/03 19:09:09;;;;;;;22.20;15.08;;;;;;;11.18;95.59;99716.23;2872357;81;21087;-61
2022/11/03 19:13:28;;;;;;;33.18;19.05;;;;;;;11.13;95.89;99719.32;2881482;79;20996;-61
2022/11/03 19:17:33;;;;;;;24.02;15.88;;;;;;;11.16;95.32;99707.05;2880552;80;21141;-62
2022/11/03 19:21:34;;;;;;;27.67;16.48;;;;;;;11.06;96.05;99707.58;2878388;80;20976;-57
2022/11/03 19:25:41;;;;;;;24.63;15.85;;;;;;;11.07;96.14;99696.77;2773980;82;21011;-59
2022/11/03 19:29:43;;;;;;;30.92;17.10;;;;;;;11.02;96.67;99698.21;2888706;81;21012;-60
2022/11/03 19:33:46;;;;;;;33.10;16.85;;;;;;;11.03;96.50;99686.08;2868382;82;21025;-62
2022/11/03 19:38:01;;;;;;;31.17;17.25;;;;;;;10.98;97.13;99679.02;2852464;81;21020;-60
2022/11/03 19:42:35;;;;;;;29.42;20.77;;;;;;;10.98;97.15;99675.03;2902790;79;21039;-60
2022/11/03 19:46:32;;;;;;;34.30;21.30;;;;;;;10.95;97.44;99661.50;2854425;81;20976;-59
2022/11/03 19:50:35;;;;;;;34.53;21.02;;;;;;;11.02;96.99;99650.31;2862936;80;21106;-59